Guanaja, Honduras
Current Conditions -  °F | °C
As of 3:00 PM on Monday 24 Nov 2014 (Local Time) from MHRO Reporting Station
Few Clouds Few Clouds  
Wind Chill: 30°   Ceiling: Unl
Heat Index: 35°   Visibility: 6mi
Dew Point: 24°   Wind: 12mph
Humidity: 70%   Direction: 80°E
Pressure: 29.8"   Gusts: NA
Location:  16.43°N, 85.88°W
Report Text: MHRO 242100Z 08010KT 9999 FEW025 30/24 Q1009 A2980 NOSIG
Loading
Personal Weather Stations






























Interactive Weather Map New forecast layout! Learn more

10-Day Weather Forecast

Advertisements
Track Severe Weather on mobile